Main page
METAR-TAF:

METAR-TAF

Airports :

Mitiga International Airport

Tripoli, Libya

latitude: 32-54N, longitude: 13-17E, elevation: 11 m

METAR: missing

Time: 04:53 (02:53 UTC)

Forecast

The report was made 3 hours and 53 minutes ago, at 23:00 UTC
Forecast valid from 10 at 00 UTC to 10 at 24 UTC
Wind 2 kt from variable directions
Visibility: 8000 m
Scattered clouds at a height of 2500 ft
Becoming
from 10 at 12 UTC to 10 at 14 UTC
Wind 12 kt from the North
Becoming
from 10 at 20 UTC to 10 at 22 UTC
Wind 2 kt from variable directions

TAF: HLLM 092300Z 1000/1024 VRB02KT 8000 SCT025 BECMG 1012/1014 35012KT BECMG 1020/1022 VRB02KT

Weather observations and forecasts of more than 4000 airports (METAR and TAF reports).

The available stations are represented by yellow and red dots on the map.

Hover mouse over dot to see the name of the station.

Then click to see weather observations and forecasts.

To change the map : click on the green buttons with a black cross to zoom in, on the green button with a dash to zoom out, or on the green arrows for adjacent maps.


METAR-TAF: